Time;durP1;ratioP1;P1;durP2;ratioP2;P2;SDS_P1;SDS_P2;PMS_P1;PMS_P2;Temp;Humidity;BMP_temperature;BMP_pressure;BME280_temperature;BME280_humidity;BME280_pressure;Samples;Min_cycle;Max_cycle;Signal;HPM_P1;HPM_P2
2022/10/11 00:00:23;;;;;;;1.35;0.68;;;5.90;99.90;;;;;;5036650;28;20398;-80
2022/10/11 00:02:49;;;;;;;3.17;0.80;;;5.60;99.90;;;;;;5051571;28;20539;-80
2022/10/11 00:05:15;;;;;;;1.08;0.57;;;5.60;99.90;;;;;;5055920;28;20186;-80
2022/10/11 00:07:41;;;;;;;1.65;0.63;;;6.40;99.90;;;;;;5072593;28;20501;-80
2022/10/11 00:10:07;;;;;;;2.30;0.70;;;5.80;99.90;;;;;;5055947;28;20045;-80
2022/10/11 00:12:33;;;;;;;4.25;0.77;;;5.50;99.90;;;;;;5072460;28;20033;-80
2022/10/11 00:14:59;;;;;;;3.75;0.60;;;6.10;99.90;;;;;;5055553;28;20037;-80
2022/10/11 00:17:24;;;;;;;1.65;0.65;;;5.50;99.90;;;;;;5072383;28;20076;-80
2022/10/11 00:19:50;;;;;;;5.70;0.93;;;5.50;99.90;;;;;;5072714;28;20478;-81
2022/10/11 00:22:16;;;;;;;3.03;0.65;;;5.50;99.90;;;;;;5069461;28;20478;-81
2022/10/11 00:24:42;;;;;;;4.63;0.80;;;5.40;99.90;;;;;;5055013;28;20090;-81
2022/10/11 00:27:07;;;;;;;1.58;0.75;;;5.40;99.90;;;;;;5035384;28;20041;-81
2022/10/11 00:29:34;;;;;;;1.98;0.70;;;5.40;99.90;;;;;;5035821;28;20057;-81
2022/10/11 00:31:59;;;;;;;2.05;0.52;;;5.30;99.90;;;;;;5061068;28;20039;-81
2022/10/11 00:34:25;;;;;;;2.70;1.02;;;5.30;99.90;;;;;;5072139;28;20037;-85
2022/10/11 00:36:51;;;;;;;1.45;0.63;;;5.30;99.90;;;;;;5055665;28;20089;-85
2022/10/11 00:39:17;;;;;;;0.77;0.50;;;5.30;99.90;;;;;;5072088;28;20037;-85
2022/10/11 00:41:42;;;;;;;1.85;0.63;;;6.10;99.90;;;;;;5038831;28;20138;-85
2022/10/11 00:44:20;;;;;;;2.97;0.70;;;5.30;99.90;;;;;;5054636;28;20088;-85
2022/10/11 00:47:01;;;;;;;0.40;0.30;;;5.20;99.90;;;;;;5071772;28;20037;-86
2022/10/11 00:49:38;;;;;;;3.10;0.88;;;5.20;99.90;;;;;;5072181;28;20102;-85
2022/10/11 00:52:30;;;;;;;2.50;0.65;;;5.20;99.90;;;;;;5071157;28;20110;-82
2022/10/11 00:55:15;;;;;;;1.33;0.60;;;5.20;99.90;;;;;;5055330;28;20036;-82
2022/10/11 00:57:45;;;;;;;1.83;0.63;;;5.30;99.90;;;;;;5055094;28;20467;-82
2022/10/11 01:00:12;;;;;;;1.05;0.57;;;5.70;99.90;;;;;;5055346;28;20123;-82
2022/10/11 01:02:39;;;;;;;0.52;0.25;;;5.20;99.90;;;;;;5054400;28;20047;-82
2022/10/11 01:05:07;;;;;;;2.17;0.70;;;5.10;99.90;;;;;;5054283;28;20040;-82
2022/10/11 01:07:33;;;;;;;1.55;0.68;;;5.10;99.90;;;;;;5071847;28;20417;-82
2022/10/11 01:09:59;;;;;;;0.98;0.55;;;5.70;99.90;;;;;;5071986;28;20037;-82
2022/10/11 01:12:28;;;;;;;0.88;0.50;;;5.10;99.90;;;;;;5055342;28;20173;-82
2022/10/11 01:15:10;;;;;;;0.30;0.30;;;5.90;99.90;;;;;;5055132;28;20029;-82
2022/10/11 01:18:00;;;;;;;3.25;0.63;;;5.00;99.90;;;;;;5071518;28;20082;-82
2022/10/11 01:20:30;;;;;;;1.17;0.70;;;;;;;;;;5071818;28;20077;-83
2022/10/11 01:23:08;;;;;;;1.65;0.47;;;5.00;99.90;;;;;;5071705;28;20364;-85
2022/10/11 01:25:56;;;;;;;0.82;0.38;;;4.90;99.90;;;;;;5054805;28;20056;-85
2022/10/11 01:29:00;;;;;;;0.88;0.57;;;4.90;99.90;;;;;;5055164;28;20079;-85
2022/10/11 01:31:52;;;;;;;1.45;0.40;;;4.90;99.90;;;;;;5034808;28;20124;-85
2022/10/11 01:34:33;;;;;;;1.55;0.63;;;4.80;99.90;;;;;;5071213;28;20037;-85
2022/10/11 01:37:09;;;;;;;1.13;0.50;;;4.80;99.90;;;;;;5071157;28;20041;-85
2022/10/11 01:39:41;;;;;;;1.25;0.50;;;4.80;99.90;;;;;;5055221;28;20040;-85
2022/10/11 01:42:11;;;;;;;3.30;0.80;;;5.70;99.90;;;;;;5054627;28;20126;-81
2022/10/11 01:44:39;;;;;;;3.00;0.82;;;4.80;99.90;;;;;;5069509;28;20072;-81
2022/10/11 01:47:04;;;;;;;4.07;0.75;;;4.80;99.90;;;;;;5070841;28;20040;-81
2022/10/11 01:49:30;;;;;;;3.72;0.98;;;4.70;99.90;;;;;;5054696;28;20043;-81
2022/10/11 01:52:02;;;;;;;0.73;0.43;;;4.70;99.90;;;;;;5055076;28;20076;-81
2022/10/11 01:54:46;;;;;;;3.53;0.85;;;4.70;99.90;;;;;;5070828;28;20037;-81
2022/10/11 01:57:24;;;;;;;1.98;0.63;;;4.70;99.90;;;;;;5054392;28;20055;-85
2022/10/11 02:00:08;;;;;;;1.35;0.40;;;4.70;99.90;;;;;;5054064;28;20041;-85
2022/10/11 02:02:55;;;;;;;4.32;1.42;;;4.70;99.90;;;;;;5054676;28;20180;-85
2022/10/11 02:05:54;;;;;;;0.63;0.40;;;;;;;;;;5057725;28;20181;-85
2022/10/11 02:08:46;;;;;;;0.63;0.38;;;4.60;99.90;;;;;;5029688;28;20044;-85
2022/10/11 02:11:21;;;;;;;0.90;0.75;;;4.60;99.90;;;;;;5074514;28;20044;-85
2022/10/11 02:13:57;;;;;;;2.22;0.65;;;4.60;99.90;;;;;;5058170;28;20099;-82
2022/10/11 02:16:39;;;;;;;1.23;0.52;;;4.60;99.90;;;;;;5068626;28;20107;-82
2022/10/11 02:19:07;;;;;;;1.63;0.55;;;4.60;99.90;;;;;;5071895;28;20044;-82
2022/10/11 02:21:37;;;;;;;1.98;0.50;;;4.60;99.90;;;;;;5057360;28;20032;-82
2022/10/11 02:24:16;;;;;;;3.67;0.73;;;4.50;99.90;;;;;;5074475;28;20551;-82
2022/10/11 02:26:46;;;;;;;1.58;0.50;;;4.50;99.90;;;;;;5073457;28;20123;-82
2022/10/11 02:29:15;;;;;;;1.27;0.43;;;4.50;99.90;;;;;;5074236;28;20119;-82
2022/10/11 02:31:42;;;;;;;3.03;0.50;;;4.40;99.90;;;;;;5074123;28;20054;-81
2022/10/11 02:34:22;;;;;;;1.58;0.47;;;4.50;99.90;;;;;;5074222;28;20525;-80
2022/10/11 02:37:18;;;;;;;2.33;0.40;;;4.10;99.90;;;;;;5073810;28;20048;-80
2022/10/11 02:40:16;;;;;;;0.32;0.30;;;4.50;99.90;;;;;;5074221;28;20098;-81
2022/10/11 02:42:43;;;;;;;;;;;4.50;99.90;;;;;;5066225;28;20052;-80
2022/10/11 02:45:17;;;;;;;1.15;0.40;;;4.50;99.90;;;;;;5073832;28;20294;-80
2022/10/11 02:47:43;;;;;;;1.00;0.43;;;5.50;99.90;;;;;;5057762;28;20032;-80
2022/10/11 02:50:13;;;;;;;4.28;0.68;;;4.30;99.90;;;;;;5056800;28;20044;-80
2022/10/11 02:52:39;;;;;;;0.77;0.55;;;4.40;99.90;;;;;;5073975;28;20052;-80
2022/10/11 02:55:06;;;;;;;1.15;0.40;;;4.70;99.90;;;;;;5073925;28;20041;-80
2022/10/11 02:57:31;;;;;;;1.00;0.40;;;4.30;99.90;;;;;;5056632;28;20386;-80
2022/10/11 02:59:57;;;;;;;1.10;0.60;;;4.30;99.90;;;;;;5073421;28;20032;-80
2022/10/11 03:02:23;;;;;;;0.88;0.50;;;4.30;99.90;;;;;;5056961;28;20048;-80
2022/10/11 03:04:49;;;;;;;0.55;0.38;;;4.40;99.90;;;;;;5073766;28;20049;-80
2022/10/11 03:07:14;;;;;;;0.82;0.50;;;4.40;99.90;;;;;;5057038;28;20430;-80
2022/10/11 03:09:40;;;;;;;1.45;0.50;;;4.30;99.90;;;;;;5072642;28;20039;-80
2022/10/11 03:12:06;;;;;;;0.90;0.60;;;4.40;99.90;;;;;;5073556;28;20123;-80
2022/10/11 03:14:32;;;;;;;1.63;0.70;;;4.90;99.90;;;;;;5056506;28;20040;-80
2022/10/11 03:16:59;;;;;;;2.88;0.60;;;4.30;99.90;;;;;;5073368;28;20387;-80
2022/10/11 03:19:25;;;;;;;1.10;0.32;;;4.30;99.90;;;;;;5073481;28;20079;-80
2022/10/11 03:21:51;;;;;;;1.25;0.68;;;4.40;99.90;;;;;;5072985;28;20371;-82
2022/10/11 03:24:16;;;;;;;1.63;0.85;;;4.40;99.90;;;;;;5052187;28;20044;-82
2022/10/11 03:26:42;;;;;;;3.10;1.00;;;4.40;99.90;;;;;;5053606;28;20045;-83
2022/10/11 03:29:08;;;;;;;1.83;0.40;;;4.40;99.90;;;;;;5071426;28;20093;-82
2022/10/11 03:31:33;;;;;;;0.63;0.52;;;4.90;99.90;;;;;;5040015;28;20037;-82
2022/10/11 03:33:59;;;;;;;2.03;0.73;;;4.50;99.90;;;;;;5056425;28;20121;-82
2022/10/11 03:36:25;;;;;;;1.30;0.50;;;4.50;99.90;;;;;;5073189;28;20048;-80
2022/10/11 03:38:51;;;;;;;0.30;0.30;;;5.30;99.90;;;;;;5072766;28;20072;-80
2022/10/11 03:41:16;;;;;;;0.90;0.45;;;4.60;99.90;;;;;;5056289;28;20119;-80
2022/10/11 03:43:42;;;;;;;1.02;0.60;;;4.70;99.90;;;;;;5056249;28;20122;-79
2022/10/11 03:46:08;;;;;;;2.97;0.68;;;4.70;99.90;;;;;;5072781;28;20106;-79
2022/10/11 03:48:33;;;;;;;1.58;0.50;;;4.70;99.90;;;;;;5051918;28;20090;-80
2022/10/11 03:50:59;;;;;;;4.75;1.13;;;4.70;99.90;;;;;;5071831;28;20036;-80
2022/10/11 03:53:25;;;;;;;1.05;0.47;;;4.80;99.90;;;;;;5056689;28;20032;-80
2022/10/11 03:55:53;;;;;;;0.77;0.45;;;4.90;99.90;;;;;;5056390;28;20127;-80
2022/10/11 03:58:19;;;;;;;2.10;0.77;;;4.90;99.90;;;;;;5072814;28;20045;-80
2022/10/11 04:00:45;;;;;;;2.55;0.70;;;4.80;99.90;;;;;;5061091;28;20075;-80
2022/10/11 04:03:10;;;;;;;1.73;0.60;;;4.70;99.90;;;;;;5052895;28;20041;-80
2022/10/11 04:05:36;;;;;;;4.50;0.70;;;4.80;99.90;;;;;;5052613;28;20051;-80
2022/10/11 04:08:02;;;;;;;0.63;0.63;;;4.80;99.90;;;;;;5068030;28;20046;-80
2022/10/11 04:10:29;;;;;;;2.30;0.70;;;5.00;99.90;;;;;;5072347;28;20547;-81
2022/10/11 04:12:55;;;;;;;1.35;0.70;;;5.00;99.90;;;;;;5055990;28;20044;-82
2022/10/11 04:15:21;;;;;;;2.70;0.70;;;5.00;99.90;;;;;;5056149;28;20470;-82
2022/10/11 04:17:47;;;;;;;2.10;0.63;;;5.10;99.90;;;;;;5072077;28;20044;-82
2022/10/11 04:20:13;;;;;;;3.40;0.95;;;5.20;99.90;;;;;;5055819;28;20040;-82
2022/10/11 04:22:38;;;;;;;2.30;0.90;;;5.40;99.90;;;;;;5055699;28;20040;-82
2022/10/11 04:25:06;;;;;;;2.45;0.57;;;5.40;99.90;;;;;;5071484;28;20486;-82
2022/10/11 04:27:32;;;;;;;2.38;0.88;;;5.40;99.90;;;;;;5071719;28;20093;-85
2022/10/11 04:29:58;;;;;;;2.20;0.77;;;5.40;99.90;;;;;;5072654;28;20040;-85
2022/10/11 04:32:23;;;;;;;2.47;0.68;;;5.40;99.90;;;;;;5071982;28;20547;-85
2022/10/11 04:34:50;;;;;;;1.65;0.73;;;5.40;99.90;;;;;;5071940;28;20174;-85
2022/10/11 04:37:16;;;;;;;2.22;0.68;;;5.40;99.90;;;;;;5055093;28;20399;-85
2022/10/11 04:39:42;;;;;;;1.13;0.43;;;5.40;99.90;;;;;;5072469;28;20097;-85
2022/10/11 04:42:08;;;;;;;2.38;0.60;;;5.40;99.90;;;;;;5072078;28;20128;-85
2022/10/11 04:44:34;;;;;;;1.67;0.65;;;6.20;99.90;;;;;;5039234;28;20044;-82
2022/10/11 04:47:00;;;;;;;2.70;0.65;;;5.50;99.90;;;;;;5071710;28;20090;-82
2022/10/11 04:49:26;;;;;;;2.25;1.00;;;5.60;99.90;;;;;;5071418;28;20037;-82
2022/10/11 04:51:51;;;;;;;1.25;0.52;;;5.70;99.90;;;;;;5072255;28;20035;-82
2022/10/11 04:54:17;;;;;;;0.57;0.40;;;5.70;99.90;;;;;;5055436;28;20437;-82
2022/10/11 04:56:43;;;;;;;1.30;0.85;;;5.70;99.90;;;;;;5055001;28;20045;-82
2022/10/11 04:59:09;;;;;;;2.92;1.10;;;5.70;99.90;;;;;;5055404;28;20123;-82
2022/10/11 05:01:35;;;;;;;0.82;0.60;;;;;;;;;;5072014;28;20083;-82
2022/10/11 05:04:00;;;;;;;0.80;0.47;;;5.80;99.90;;;;;;5071678;28;20074;-82
2022/10/11 05:06:26;;;;;;;0.95;0.35;;;5.80;99.90;;;;;;5071929;28;20044;-82
2022/10/11 05:08:52;;;;;;;1.33;0.65;;;5.80;99.90;;;;;;5072292;28;20482;-82
2022/10/11 05:11:18;;;;;;;1.17;0.50;;;5.80;99.90;;;;;;5055232;28;20044;-82
2022/10/11 05:13:45;;;;;;;1.17;0.60;;;5.70;99.90;;;;;;5071379;28;20037;-81
2022/10/11 05:16:12;;;;;;;1.15;0.68;;;5.70;99.90;;;;;;5071235;28;20052;-82
2022/10/11 05:18:38;;;;;;;1.58;0.68;;;5.60;99.90;;;;;;5071420;28;20044;-80
2022/10/11 05:21:05;;;;;;;2.65;0.60;;;5.70;99.90;;;;;;5072031;28;20094;-80
2022/10/11 05:23:32;;;;;;;1.85;0.90;;;5.50;99.90;;;;;;5071260;28;20040;-80
2022/10/11 05:25:59;;;;;;;0.85;0.55;;;5.50;99.90;;;;;;5071357;28;20055;-80
2022/10/11 05:28:25;;;;;;;2.15;0.77;;;5.40;99.90;;;;;;5071597;28;20044;-80
2022/10/11 05:30:51;;;;;;;0.35;0.30;;;5.40;99.90;;;;;;5071506;28;20371;-80
2022/10/11 05:33:17;;;;;;;1.77;0.50;;;5.50;99.90;;;;;;5071695;28;20041;-80
2022/10/11 05:35:43;;;;;;;1.48;0.85;;;5.30;99.90;;;;;;5071126;28;20578;-80
2022/10/11 05:38:09;;;;;;;2.05;0.80;;;5.30;99.90;;;;;;5072827;28;20044;-80
2022/10/11 05:40:37;;;;;;;0.38;0.38;;;5.20;99.90;;;;;;5065599;28;20086;-80
2022/10/11 05:43:03;;;;;;;3.70;0.93;;;5.30;99.90;;;;;;5075128;28;20070;-80
2022/10/11 05:45:31;;;;;;;2.28;0.40;;;5.30;99.90;;;;;;5075190;28;20083;-80
2022/10/11 05:47:58;;;;;;;6.63;1.25;;;5.30;99.90;;;;;;5074753;28;20491;-80
2022/10/11 05:50:24;;;;;;;2.78;0.65;;;5.30;99.90;;;;;;5058500;28;20098;-84
2022/10/11 05:52:50;;;;;;;3.72;0.85;;;5.40;99.90;;;;;;5058677;28;20029;-85
2022/10/11 05:55:16;;;;;;;5.97;1.08;;;5.40;99.90;;;;;;5075309;28;20040;-84
2022/10/11 05:57:41;;;;;;;4.10;1.10;;;5.60;99.90;;;;;;5075098;28;20044;-85
2022/10/11 06:00:08;;;;;;;6.85;1.42;;;6.30;99.90;;;;;;5058528;28;20135;-84
2022/10/11 06:02:34;;;;;;;7.43;1.48;;;5.50;99.90;;;;;;5052999;28;20465;-85
2022/10/11 06:04:59;;;;;;;4.13;1.15;;;5.60;99.90;;;;;;5040860;28;20041;-85
2022/10/11 06:07:25;;;;;;;3.22;1.27;;;5.60;99.90;;;;;;5058115;28;20044;-80
2022/10/11 06:09:51;;;;;;;1.23;0.70;;;5.60;99.90;;;;;;5074849;28;20502;-80
2022/10/11 06:12:17;;;;;;;4.30;1.08;;;5.60;99.90;;;;;;5057785;28;20482;-80
2022/10/11 06:14:43;;;;;;;3.75;0.90;;;5.60;99.90;;;;;;5075022;28;20059;-80
2022/10/11 06:17:09;;;;;;;3.33;0.98;;;5.70;99.90;;;;;;5074624;28;20063;-80
2022/10/11 06:19:35;;;;;;;1.42;0.75;;;5.80;99.90;;;;;;5057041;28;20033;-79
2022/10/11 06:22:01;;;;;;;3.22;1.25;;;5.90;99.90;;;;;;5073701;28;20036;-80
2022/10/11 06:24:26;;;;;;;3.78;1.17;;;5.90;99.90;;;;;;5058144;28;20381;-85
2022/10/11 06:26:53;;;;;;;2.67;1.00;;;6.10;99.90;;;;;;5056919;28;20094;-85
2022/10/11 06:29:19;;;;;;;7.63;1.30;;;6.20;99.90;;;;;;5071942;28;20041;-85
2022/10/11 06:31:44;;;;;;;4.72;0.95;;;6.20;99.90;;;;;;5057598;28;20046;-85
2022/10/11 06:34:10;;;;;;;3.13;0.63;;;6.50;99.90;;;;;;5074534;28;20123;-85
2022/10/11 06:36:36;;;;;;;2.47;1.02;;;6.60;99.90;;;;;;5043134;28;20040;-85
2022/10/11 06:39:01;;;;;;;4.13;1.02;;;6.90;99.90;;;;;;5037854;28;20041;-85
2022/10/11 06:41:28;;;;;;;2.30;0.77;;;7.20;99.90;;;;;;5073517;28;20414;-79
2022/10/11 06:43:55;;;;;;;2.65;0.95;;;7.30;99.90;;;;;;5073446;28;20056;-79
2022/10/11 06:46:22;;;;;;;1.80;1.08;;;7.70;99.90;;;;;;5073946;28;20052;-79
2022/10/11 06:49:06;;;;;;;5.60;1.52;;;7.90;99.90;;;;;;5071289;28;20453;-80
2022/10/11 06:51:34;;;;;;;2.80;1.10;;;8.60;99.90;;;;;;5025787;28;20041;-80
2022/10/11 06:54:00;;;;;;;8.60;1.25;;;9.10;99.90;;;;;;5054391;28;20479;-79
2022/10/11 06:56:28;;;;;;;4.00;1.25;;;9.70;99.90;;;;;;5054183;28;20120;-82
2022/10/11 06:58:56;;;;;;;6.75;1.35;;;10.50;99.90;;;;;;5057331;28;20546;-82
2022/10/11 07:01:22;;;;;;;6.65;1.40;;;11.30;99.90;;;;;;5073461;28;20498;-82
2022/10/11 07:03:50;;;;;;;3.72;1.05;;;11.80;99.90;;;;;;5038506;28;20086;-82
2022/10/11 07:06:18;;;;;;;3.88;1.20;;;12.40;99.90;;;;;;5072823;28;20039;-82
2022/10/11 07:08:44;;;;;;;3.20;1.40;;;12.60;99.90;;;;;;5073614;28;20109;-82
2022/10/11 07:11:12;;;;;;;4.40;1.05;;;12.50;99.90;;;;;;5056575;28;20550;-82
2022/10/11 07:13:39;;;;;;;4.45;1.25;;;12.50;99.90;;;;;;5073602;28;20037;-79
2022/10/11 07:16:09;;;;;;;6.60;1.75;;;12.60;99.90;;;;;;5073452;28;20040;-79
2022/10/11 07:18:35;;;;;;;3.42;1.23;;;13.00;99.90;;;;;;5051939;28;20489;-79
2022/10/11 07:21:11;;;;;;;1.73;1.15;;;13.10;99.90;;;;;;5039914;28;20133;-79
2022/10/11 07:23:37;;;;;;;6.82;1.58;;;13.70;99.90;;;;;;5073532;28;20040;-79
2022/10/11 07:26:04;;;;;;;5.60;1.42;;;14.10;99.90;;;;;;5073238;28;20036;-79
2022/10/11 07:28:30;;;;;;;8.45;1.15;;;14.10;99.90;;;;;;5073064;28;20043;-79
2022/10/11 07:30:56;;;;;;;5.22;1.35;;;13.80;99.90;;;;;;5068034;28;20040;-80
2022/10/11 07:33:22;;;;;;;5.40;1.45;;;13.40;99.90;;;;;;5039312;28;20047;-80
2022/10/11 07:35:48;;;;;;;3.28;1.08;;;13.00;99.90;;;;;;5073364;28;20040;-80
2022/10/11 07:38:15;;;;;;;2.60;0.70;;;12.80;99.90;;;;;;5073194;28;20437;-81
2022/10/11 07:40:42;;;;;;;5.15;1.45;;;12.60;99.90;;;;;;5072138;28;20040;-81
2022/10/11 07:43:09;;;;;;;3.90;1.17;;;12.80;99.90;;;;;;5072634;28;20135;-80
2022/10/11 07:45:40;;;;;;;2.40;0.82;;;14.70;99.90;;;;;;5055965;28;20043;-80
2022/10/11 07:48:06;;;;;;;5.32;1.25;;;14.90;99.90;;;;;;5056650;28;20036;-82
2022/10/11 07:50:32;;;;;;;6.60;1.08;;;16.00;99.90;;;;;;5056370;28;20094;-82
2022/10/11 07:52:59;;;;;;;4.20;1.13;;;16.80;99.90;;;;;;5072308;28;20560;-83
2022/10/11 07:55:26;;;;;;;3.40;1.17;;;17.30;99.90;;;;;;5072881;28;20036;-82
2022/10/11 07:57:54;;;;;;;3.80;1.40;;;18.10;99.90;;;;;;5072630;28;20040;-82
2022/10/11 08:00:19;;;;;;;3.83;1.80;;;18.60;99.90;;;;;;5056030;28;20394;-82
2022/10/11 08:02:45;;;;;;;4.60;1.98;;;20.20;99.90;;;;;;5055213;28;20043;-82
2022/10/11 08:05:11;;;;;;;3.03;1.08;;;20.30;99.00;;;;;;5067359;28;20041;-81
2022/10/11 08:07:37;;;;;;;5.55;1.20;;;20.50;98.00;;;;;;5052922;28;20435;-81
2022/10/11 08:10:04;;;;;;;4.63;1.50;;;21.20;97.80;;;;;;5036088;28;20593;-81
2022/10/11 08:12:30;;;;;;;3.28;1.17;;;21.10;96.30;;;;;;5039687;28;20036;-81
2022/10/11 08:14:56;;;;;;;3.30;1.17;;;20.90;94.90;;;;;;5072606;28;20119;-81
2022/10/11 08:17:22;;;;;;;3.53;1.15;;;20.80;95.90;;;;;;5071592;28;20044;-82
2022/10/11 08:19:48;;;;;;;4.88;1.65;;;21.10;94.80;;;;;;5072588;28;20040;-82
2022/10/11 08:22:13;;;;;;;3.97;1.35;;;21.40;95.20;;;;;;5055720;28;20119;-83
2022/10/11 08:24:39;;;;;;;2.47;1.15;;;22.20;93.90;;;;;;5051537;28;20064;-83
2022/10/11 08:27:05;;;;;;;4.00;1.48;;;22.60;93.90;;;;;;5038000;28;20068;-83
2022/10/11 08:29:31;;;;;;;4.13;1.45;;;23.30;91.10;;;;;;5072327;28;20109;-83
2022/10/11 08:31:57;;;;;;;4.50;1.63;;;23.50;91.40;;;;;;5055471;28;20039;-81
2022/10/11 08:34:23;;;;;;;4.32;1.00;;;23.70;91.40;;;;;;5055286;28;20036;-81
2022/10/11 08:36:48;;;;;;;2.83;1.10;;;23.60;89.20;;;;;;5055326;28;20048;-80
2022/10/11 08:39:14;;;;;;;4.68;1.27;;;22.60;88.90;;;;;;5071602;28;20478;-79
2022/10/11 08:41:44;;;;;;;3.55;1.80;;;22.20;93.20;;;;;;5036854;28;20044;-79
2022/10/11 08:44:27;;;;;;;7.03;1.38;;;22.90;92.00;;;;;;5072312;28;20135;-82
2022/10/11 08:47:00;;;;;;;4.82;0.93;;;23.20;91.10;;;;;;5072037;28;20509;-80
2022/10/11 08:49:30;;;;;;;3.78;1.70;;;23.30;91.80;;;;;;5067093;28;20071;-80
2022/10/11 08:52:03;;;;;;;6.05;1.83;;;23.80;91.20;;;;;;5066424;28;20040;-80
2022/10/11 08:54:48;;;;;;;4.32;1.10;;;24.30;89.50;;;;;;5073028;28;20036;-80
2022/10/11 08:57:19;;;;;;;4.18;1.23;;;23.90;90.20;;;;;;5072242;28;20048;-80
2022/10/11 09:00:01;;;;;;;2.78;0.95;;;24.30;88.50;;;;;;5072567;28;20041;-80
2022/10/11 09:02:45;;;;;;;3.90;1.20;;;24.60;87.80;;;;;;5072754;28;20040;-80
2022/10/11 09:05:16;;;;;;;6.35;1.58;;;25.10;88.30;;;;;;5071979;28;20075;-80
2022/10/11 09:07:57;;;;;;;5.88;1.73;;;25.40;90.10;;;;;;5072209;28;20549;-80
2022/10/11 09:10:41;;;;;;;2.80;1.30;;;25.70;87.10;;;;;;5071972;28;20040;-85
2022/10/11 09:13:42;;;;;;;4.18;1.30;;;25.90;85.60;;;;;;5057487;28;20047;-85
2022/10/11 09:16:23;;;;;;;6.40;1.10;;;26.20;84.30;;;;;;5059211;28;20123;-85
2022/10/11 09:19:07;;;;;;;3.28;0.80;;;26.80;84.30;;;;;;5076013;28;20044;-85
2022/10/11 09:21:58;;;;;;;3.92;1.17;;;26.90;81.60;;;;;;5074676;28;20053;-85
2022/10/11 09:24:54;;;;;;;3.42;1.33;;;27.10;81.60;;;;;;5069246;28;20041;-85
2022/10/11 09:27:25;;;;;;;;;;;27.30;83.80;;;;;;5058597;28;20040;-85
2022/10/11 09:30:13;;;;;;;5.78;1.30;;;28.00;80.10;;;;;;5064416;28;19992;-85
2022/10/11 09:32:43;;;;;;;2.90;1.13;;;27.80;80.40;;;;;;5055475;28;20044;-85
2022/10/11 09:35:20;;;;;;;3.88;1.08;;;28.10;81.50;;;;;;5062443;28;20051;-85
2022/10/11 09:38:26;;;;;;;1.63;0.75;;;28.30;79.50;;;;;;5052333;28;20068;-85
2022/10/11 09:41:10;;;;;;;3.65;1.35;;;28.40;78.60;;;;;;5073583;28;20084;-86
2022/10/11 09:43:36;;;;;;;4.60;1.55;;;28.40;76.80;;;;;;5058621;28;20091;-85
2022/10/11 09:46:02;;;;;;;2.92;1.40;;;28.00;77.70;;;;;;5058509;28;20082;-85
2022/10/11 09:48:40;;;;;;;3.38;1.20;;;27.80;80.80;;;;;;5058647;28;20047;-85
2022/10/11 09:51:13;;;;;;;4.13;1.10;;;28.00;76.40;;;;;;5055239;28;20037;-85
2022/10/11 09:53:52;;;;;;;1.77;1.00;;;28.10;75.70;;;;;;5055366;28;20041;-85
2022/10/11 09:56:18;;;;;;;2.60;0.88;;;27.90;76.70;;;;;;5055313;28;20056;-85
2022/10/11 09:58:44;;;;;;;1.60;1.05;;;27.80;79.10;;;;;;5047512;28;20037;-86
2022/10/11 10:01:20;;;;;;;2.75;0.80;;;28.00;76.40;;;;;;5075101;28;20406;-81
2022/10/11 10:03:46;;;;;;;2.67;1.20;;;28.00;76.30;;;;;;5075613;28;20075;-81
2022/10/11 10:06:20;;;;;;;3.45;1.27;;;28.40;76.80;;;;;;5044435;28;20410;-81
2022/10/11 10:08:46;;;;;;;1.60;0.68;;;28.40;75.10;;;;;;5059017;28;20036;-81
2022/10/11 10:11:13;;;;;;;3.45;1.65;;;28.10;75.60;;;;;;5058466;28;20041;-81
2022/10/11 10:13:57;;;;;;;1.90;1.08;;;28.10;75.30;;;;;;5075375;28;20415;-81
2022/10/11 10:16:30;;;;;;;5.43;1.25;;;28.50;74.60;;;;;;5058409;28;20036;-82
2022/10/11 10:19:03;;;;;;;3.95;0.90;;;28.30;72.60;;;;;;5075031;28;20041;-83
2022/10/11 10:21:30;;;;;;;3.80;0.82;;;27.70;73.00;;;;;;5074913;28;20047;-83
2022/10/11 10:24:01;;;;;;;2.35;0.75;;;27.30;75.70;;;;;;5056622;28;20032;-82
2022/10/11 10:26:28;;;;;;;2.85;1.05;;;27.30;75.50;;;;;;5074800;28;20083;-82
2022/10/11 10:28:55;;;;;;;5.75;1.67;;;27.10;74.30;;;;;;5074983;28;20040;-83
2022/10/11 10:31:24;;;;;;;3.63;0.85;;;27.10;73.60;;;;;;5075045;28;20104;-83
2022/10/11 10:33:54;;;;;;;3.17;0.82;;;26.70;74.20;;;;;;5074685;28;20123;-82
2022/10/11 10:36:26;;;;;;;4.55;1.08;;;26.90;73.50;;;;;;5070840;28;20438;-83
2022/10/11 10:39:09;;;;;;;3.92;0.88;;;27.10;75.00;;;;;;5074860;28;20048;-83
2022/10/11 10:41:35;;;;;;;3.75;0.57;;;27.10;73.80;;;;;;5062481;28;20392;-83
2022/10/11 10:44:02;;;;;;;5.00;1.08;;;27.30;73.30;;;;;;5041471;28;20459;-82
2022/10/11 10:46:49;;;;;;;3.25;0.75;;;27.60;74.60;;;;;;5057615;28;20044;-83
2022/10/11 10:49:20;;;;;;;2.70;1.02;;;27.70;72.50;;;;;;5056478;28;20044;-82
2022/10/11 10:51:56;;;;;;;2.47;1.02;;;27.70;71.90;;;;;;5074182;28;20068;-82
2022/10/11 10:54:37;;;;;;;3.33;1.10;;;27.20;72.80;;;;;;5074219;28;20044;-83
2022/10/11 10:57:35;;;;;;;8.30;1.15;;;26.60;71.10;;;;;;5057504;28;20036;-83
2022/10/11 11:00:13;;;;;;;4.00;1.23;;;26.10;73.10;;;;;;5050247;28;20049;-82
2022/10/11 11:03:05;;;;;;;3.03;1.23;;;26.30;73.10;;;;;;5069079;28;20040;-82
2022/10/11 11:05:59;;;;;;;2.63;0.80;;;27.00;69.90;;;;;;5073926;28;20555;-83
2022/10/11 11:08:43;;;;;;;5.90;1.42;;;27.20;72.70;;;;;;5057970;28;20041;-85
2022/10/11 11:11:41;;;;;;;1.60;0.47;;;27.10;72.00;;;;;;5057517;28;20094;-85
2022/10/11 11:14:35;;;;;;;2.15;0.63;;;27.50;71.40;;;;;;5057089;28;20037;-85
2022/10/11 11:17:13;;;;;;;3.15;0.70;;;27.80;71.50;;;;;;5057587;28;20752;-85
2022/10/11 11:20:23;;;;;;;6.75;0.60;;;27.90;70.70;;;;;;5072564;28;20071;-85
2022/10/11 11:23:01;;;;;;;3.55;0.88;;;28.00;69.90;;;;;;5071694;28;20044;-85
2022/10/11 11:25:38;;;;;;;5.82;1.23;;;27.40;71.90;;;;;;5071752;28;20170;-83
2022/10/11 11:28:39;;;;;;;2.80;0.77;;;26.60;68.90;;;;;;5052719;28;20086;-83
2022/10/11 11:31:22;;;;;;;3.47;0.90;;;26.30;71.30;;;;;;5049667;28;20049;-83
2022/10/11 11:34:00;;;;;;;2.00;0.57;;;26.40;70.80;;;;;;5072372;28;20033;-83
2022/10/11 11:36:59;;;;;;;3.40;0.52;;;26.30;72.30;;;;;;5049372;28;20486;-83
2022/10/11 11:39:50;;;;;;;3.20;0.80;;;26.00;71.20;;;;;;5038953;28;20234;-83
2022/10/11 11:42:16;;;;;;;4.55;1.00;;;25.70;71.00;;;;;;5039879;28;20052;-83
2022/10/11 11:44:47;;;;;;;3.38;0.85;;;25.40;72.50;;;;;;5056593;28;20474;-82
2022/10/11 11:47:34;;;;;;;2.55;0.60;;;24.40;73.80;;;;;;5072112;28;20174;-82
2022/10/11 11:50:21;;;;;;;2.45;1.00;;;23.30;74.20;;;;;;5051957;28;20096;-82
2022/10/11 11:52:55;;;;;;;2.33;0.82;;;22.30;76.70;;;;;;5069457;28;20052;-82
2022/10/11 11:55:37;;;;;;;3.25;0.70;;;21.80;79.10;;;;;;5036407;28;20037;-82
2022/10/11 11:58:36;;;;;;;2.90;0.90;;;21.20;80.30;;;;;;5082997;22;20050;-81
2022/10/11 12:01:28;;;;;;;2.28;1.10;;;20.80;81.30;;;;;;5093267;28;20044;-81
2022/10/11 12:03:58;;;;;;;2.72;0.90;;;20.40;82.50;;;;;;5093391;28;20074;-80
2022/10/11 12:06:30;;;;;;;1.55;0.82;;;20.00;83.00;;;;;;5076224;28;20051;-81
2022/10/11 12:09:17;;;;;;;3.58;1.17;;;20.00;83.00;;;;;;5093140;28;20040;-81
2022/10/11 12:12:30;;;;;;;2.10;0.85;;;19.90;82.70;;;;;;5069176;28;20032;-81
2022/10/11 12:15:04;;;;;;;1.17;0.70;;;19.70;84.20;;;;;;5075416;28;20032;-82
2022/10/11 12:17:30;;;;;;;3.10;0.93;;;19.60;84.80;;;;;;5057711;28;20080;-82
2022/10/11 12:20:32;;;;;;;4.45;0.70;;;19.40;85.90;;;;;;5056135;28;20040;-82
2022/10/11 12:23:29;;;;;;;4.32;0.95;;;19.10;87.00;;;;;;5069906;28;20051;-82
2022/10/11 12:26:27;;;;;;;4.65;1.63;;;18.80;88.00;;;;;;5092708;28;20121;-82
2022/10/11 12:29:17;;;;;;;2.42;0.80;;;18.50;89.80;;;;;;5071062;28;20478;-82
2022/10/11 12:31:49;;;;;;;3.22;0.75;;;18.40;90.70;;;;;;5076220;28;20484;-81
2022/10/11 12:34:36;;;;;;;2.40;1.02;;;18.50;91.30;;;;;;5092340;28;20067;-80
2022/10/11 12:37:21;;;;;;;3.22;0.50;;;18.60;90.90;;;;;;5092510;28;20075;-81
2022/10/11 12:39:58;;;;;;;1.80;0.57;;;18.40;90.70;;;;;;5092707;28;20116;-81
2022/10/11 12:42:35;;;;;;;2.35;0.73;;;18.60;91.10;;;;;;5092623;28;20044;-80
2022/10/11 12:45:09;;;;;;;5.20;1.33;;;18.70;90.30;;;;;;5092706;28;20078;-81
2022/10/11 12:47:47;;;;;;;1.30;0.60;;;18.60;90.50;;;;;;5091830;28;20047;-82
2022/10/11 12:50:29;;;;;;;4.07;0.73;;;18.40;90.00;;;;;;5071640;28;20040;-82
2022/10/11 12:53:04;;;;;;;0.93;0.50;;;18.10;90.80;;;;;;5075609;28;20050;-82
2022/10/11 12:56:11;;;;;;;3.20;0.70;;;17.80;90.50;;;;;;5092051;28;20135;-82
2022/10/11 12:58:40;;;;;;;3.80;0.95;;;17.60;91.60;;;;;;5092540;28;20135;-82
2022/10/11 13:01:17;;;;;;;3.25;0.90;;;17.50;92.00;;;;;;5092521;28;20036;-82
2022/10/11 13:03:45;;;;;;;5.20;1.60;;;17.60;92.40;;;;;;5075228;28;20032;-82
2022/10/11 13:06:11;;;;;;;0.38;0.38;;;18.10;91.50;;;;;;5092278;28;20063;-81
2022/10/11 13:08:39;;;;;;;1.23;0.50;;;18.70;92.50;;;;;;5092365;28;20467;-81
2022/10/11 13:11:09;;;;;;;3.45;1.02;;;19.40;90.40;;;;;;5092115;28;20040;-81
2022/10/11 13:13:43;;;;;;;1.13;0.40;;;19.80;90.30;;;;;;5092046;28;20036;-82
2022/10/11 13:16:18;;;;;;;3.97;0.90;;;20.00;88.00;;;;;;5091826;28;20050;-81
2022/10/11 13:18:47;;;;;;;4.43;0.60;;;19.90;87.00;;;;;;5092092;28;20043;-81